createdAt,value
2022-12-09T00:59:51.924Z,0.40
2022-12-09T01:00:25.939Z,0.30
2022-12-09T01:01:00.793Z,0.40
2022-12-09T01:01:36.417Z,0.40
2022-12-09T01:02:10.910Z,0.40
2022-12-09T01:02:47.882Z,0.40
2022-12-09T01:03:22.817Z,0.40
2022-12-09T01:03:56.336Z,0.40
2022-12-09T01:04:32.515Z,0.40
2022-12-09T01:05:10.465Z,0.40
2022-12-09T01:05:45.606Z,0.40
2022-12-09T01:06:22.269Z,0.40
2022-12-09T01:06:56.659Z,0.30
2022-12-09T01:07:31.035Z,0.30
2022-12-09T01:08:07.112Z,0.40
2022-12-09T01:08:42.958Z,0.40
2022-12-09T01:09:19.065Z,0.40
2022-12-09T01:09:54.321Z,0.30
2022-12-09T01:10:30.640Z,0.30
2022-12-09T01:11:11.258Z,0.40
2022-12-09T01:11:46.526Z,0.30
2022-12-09T01:12:20.817Z,0.30
2022-12-09T01:12:55.218Z,0.40
2022-12-09T01:13:31.638Z,0.40
2022-12-09T01:14:05.716Z,0.40
2022-12-09T01:14:42.230Z,0.40
2022-12-09T01:15:17.386Z,0.40
2022-12-09T01:15:52.497Z,0.40
2022-12-09T01:16:29.886Z,0.40
2022-12-09T01:17:04.678Z,0.40
2022-12-09T01:17:39.100Z,0.40
2022-12-09T01:18:14.501Z,0.40
2022-12-09T01:18:48.771Z,0.40
2022-12-09T01:19:23.510Z,0.40
2022-12-09T01:19:57.795Z,0.40
2022-12-09T01:20:32.498Z,0.40
2022-12-09T01:21:09.226Z,0.40
2022-12-09T01:21:44.426Z,0.40
2022-12-09T01:22:19.236Z,0.30
2022-12-09T01:22:53.146Z,0.30
2022-12-09T01:23:28.410Z,0.30
2022-12-09T01:24:11.576Z,0.30
2022-12-09T01:24:46.197Z,0.30
2022-12-09T01:25:21.953Z,0.30
2022-12-09T01:25:58.031Z,0.30
2022-12-09T01:26:32.975Z,0.30
2022-12-09T01:27:06.617Z,0.40
2022-12-09T01:27:42.528Z,0.40
2022-12-09T01:28:17.599Z,0.40
2022-12-09T01:28:53.610Z,0.40
2022-12-09T01:29:30.410Z,0.40
2022-12-09T01:30:05.347Z,0.40
2022-12-09T01:30:40.171Z,0.50
2022-12-09T01:31:17.051Z,0.40
2022-12-09T01:31:50.970Z,0.50
2022-12-09T01:32:25.921Z,0.40
2022-12-09T01:33:00.570Z,0.50
2022-12-09T01:33:36.651Z,0.40
2022-12-09T01:34:10.871Z,0.40
2022-12-09T01:34:45.596Z,0.40
2022-12-09T01:35:20.725Z,0.40
2022-12-09T01:35:58.557Z,0.50
2022-12-09T01:36:32.583Z,0.50
2022-12-09T01:37:07.551Z,0.50
2022-12-09T01:37:42.615Z,0.50
2022-12-09T01:38:17.195Z,0.50
2022-12-09T01:38:52.641Z,0.50
2022-12-09T01:39:27.389Z,0.50
2022-12-09T01:40:02.706Z,0.50
2022-12-09T01:40:38.039Z,0.50
2022-12-09T01:41:17.185Z,0.40
2022-12-09T01:41:52.949Z,0.50
2022-12-09T01:42:28.305Z,0.50
2022-12-09T01:43:02.216Z,0.40
2022-12-09T01:43:37.035Z,0.40
2022-12-09T01:44:15.592Z,0.40
2022-12-09T01:45:31.405Z,0.40
2022-12-09T01:46:06.998Z,0.40
2022-12-09T01:46:42.124Z,0.30
2022-12-09T01:47:22.788Z,0.30
2022-12-09T01:48:02.273Z,0.30
2022-12-09T01:48:40.395Z,0.30
2022-12-09T01:49:19.140Z,0.30
2022-12-09T01:49:53.318Z,0.30
2022-12-09T01:50:28.830Z,0.30
2022-12-09T01:51:07.827Z,0.30
2022-12-09T01:51:45.114Z,0.30
2022-12-09T01:52:23.747Z,0.30
2022-12-09T01:52:58.797Z,0.30
2022-12-09T01:53:38.185Z,0.30
2022-12-09T01:54:12.605Z,0.30
2022-12-09T01:54:49.711Z,0.20
2022-12-09T01:55:26.547Z,0.20
2022-12-09T01:56:07.676Z,0.30
2022-12-09T01:56:43.493Z,0.30
2022-12-09T01:57:17.622Z,0.30
2022-12-09T01:57:51.693Z,0.30
2022-12-09T01:58:27.957Z,0.30
2022-12-09T01:59:05.279Z,0.30
2022-12-09T01:59:40.649Z,0.30
2022-12-09T02:00:15.860Z,0.30
2022-12-09T02:00:52.147Z,0.30
2022-12-09T02:01:28.258Z,0.40
2022-12-09T02:02:05.730Z,0.40
2022-12-09T02:02:40.899Z,0.40
2022-12-09T02:03:15.350Z,0.40
2022-12-09T02:03:51.094Z,0.40
2022-12-09T02:04:26.283Z,0.40
2022-12-09T02:05:01.731Z,0.40
2022-12-09T02:05:37.030Z,0.40
2022-12-09T02:06:10.710Z,0.40
2022-12-09T02:06:47.553Z,0.40
2022-12-09T02:07:24.596Z,0.30
2022-12-09T02:07:58.613Z,0.30
2022-12-09T02:08:34.076Z,0.30
2022-12-09T02:09:11.030Z,0.30
2022-12-09T02:09:53.813Z,0.30
2022-12-09T02:10:47.147Z,0.30
2022-12-09T02:11:50.431Z,0.30
2022-12-09T02:12:35.125Z,0.40
2022-12-09T02:13:20.670Z,0.40
2022-12-09T02:14:04.113Z,0.50
2022-12-09T02:14:43.627Z,0.40
2022-12-09T02:15:23.651Z,0.50
2022-12-09T02:16:02.432Z,0.50
2022-12-09T02:16:50.592Z,0.50
2022-12-09T02:17:32.547Z,0.50
2022-12-09T02:18:14.964Z,0.50
2022-12-09T02:18:58.974Z,0.50
2022-12-09T02:19:50.238Z,0.50
2022-12-09T02:20:34.350Z,0.50
2022-12-09T02:21:13.225Z,0.50
2022-12-09T02:21:54.961Z,0.50
2022-12-09T02:22:34.185Z,0.50
2022-12-09T02:23:14.522Z,0.50
2022-12-09T02:23:58.414Z,0.40
2022-12-09T02:24:42.484Z,0.40
2022-12-09T02:25:29.599Z,0.40
2022-12-09T02:26:16.812Z,0.40
2022-12-09T02:27:00.513Z,0.40
2022-12-09T02:27:40.887Z,0.40
2022-12-09T02:28:42.473Z,0.40
2022-12-09T02:29:35.638Z,0.40
2022-12-09T02:30:17.673Z,0.40
2022-12-09T02:31:03.591Z,0.50
2022-12-09T02:32:10.451Z,0.50
2022-12-09T02:33:06.180Z,0.50
2022-12-09T02:33:47.471Z,0.50
2022-12-09T02:34:25.033Z,0.50
2022-12-09T02:35:11.344Z,0.60
2022-12-09T02:35:50.557Z,0.60
2022-12-09T02:36:29.040Z,0.60
2022-12-09T02:37:11.382Z,0.60
2022-12-09T02:37:53.790Z,0.60
2022-12-09T02:38:34.121Z,0.60
2022-12-09T02:39:10.563Z,0.60
2022-12-09T02:39:55.681Z,0.60
2022-12-09T02:40:40.518Z,0.60
2022-12-09T02:41:17.821Z,0.60
2022-12-09T02:41:55.977Z,0.60
2022-12-09T02:42:34.815Z,0.70
2022-12-09T02:43:12.182Z,0.60
2022-12-09T02:43:51.476Z,0.60
2022-12-09T02:44:32.084Z,0.60
2022-12-09T02:45:10.047Z,0.60
2022-12-09T02:45:48.965Z,0.60
2022-12-09T02:46:24.410Z,0.60
2022-12-09T02:47:02.338Z,0.60
2022-12-09T02:47:44.060Z,0.60
2022-12-09T02:48:25.591Z,0.50
2022-12-09T02:49:01.027Z,0.50
2022-12-09T02:49:37.848Z,0.50
2022-12-09T02:50:16.703Z,0.50
2022-12-09T02:50:52.304Z,0.40
2022-12-09T02:51:28.635Z,0.40
2022-12-09T02:52:09.702Z,0.40
2022-12-09T02:52:46.204Z,0.30
2022-12-09T02:53:20.881Z,0.30
2022-12-09T02:53:59.717Z,0.30
2022-12-09T02:54:37.176Z,0.30
2022-12-09T02:55:16.657Z,0.30
2022-12-09T02:55:53.405Z,0.30
2022-12-09T02:56:28.822Z,0.30
2022-12-09T02:57:09.680Z,0.40
2022-12-09T02:57:43.533Z,0.40
2022-12-09T02:58:20.774Z,0.40
2022-12-09T02:58:55.390Z,0.40
2022-12-09T02:59:32.801Z,0.40
2022-12-09T03:00:09.504Z,0.40
2022-12-09T03:00:44.981Z,0.40
2022-12-09T03:01:39.244Z,0.40
2022-12-09T03:02:22.958Z,0.40
2022-12-09T03:03:02.582Z,0.40
2022-12-09T03:03:38.246Z,0.40
2022-12-09T03:04:19.906Z,0.40
2022-12-09T03:05:09.459Z,0.40
2022-12-09T03:05:52.935Z,0.40
2022-12-09T03:06:35.443Z,0.40
2022-12-09T03:07:18.812Z,0.50
2022-12-09T03:08:04.087Z,0.50
2022-12-09T03:08:45.892Z,0.50
2022-12-09T03:09:24.321Z,0.50
2022-12-09T03:10:08.112Z,0.50
2022-12-09T03:10:48.247Z,0.50
2022-12-09T03:11:25.502Z,0.60
2022-12-09T03:12:01.420Z,0.60
2022-12-09T03:12:39.054Z,0.60
2022-12-09T03:13:19.533Z,0.60
2022-12-09T03:14:00.817Z,0.50
2022-12-09T03:14:39.581Z,0.60
2022-12-09T03:15:18.809Z,0.60
2022-12-09T03:16:00.319Z,0.60
2022-12-09T03:16:38.482Z,0.60
2022-12-09T03:17:17.074Z,0.60
2022-12-09T03:17:54.144Z,0.60
2022-12-09T03:18:31.358Z,0.60
2022-12-09T03:19:09.691Z,0.60
2022-12-09T03:19:49.272Z,0.70
2022-12-09T03:20:30.405Z,0.70
2022-12-09T03:21:07.215Z,0.70
2022-12-09T03:21:46.200Z,0.70
2022-12-09T03:22:24.147Z,0.70
2022-12-09T03:23:03.571Z,0.70
2022-12-09T03:23:39.219Z,0.80
2022-12-09T03:24:17.124Z,0.70
2022-12-09T03:24:57.936Z,0.80
2022-12-09T03:25:34.996Z,0.80
2022-12-09T03:26:10.216Z,0.80
2022-12-09T03:26:46.110Z,0.80
2022-12-09T03:27:26.057Z,0.80
2022-12-09T03:28:04.491Z,0.70
2022-12-09T03:28:45.924Z,0.80
2022-12-09T03:29:22.541Z,0.80
2022-12-09T03:29:58.856Z,0.70
2022-12-09T03:30:36.150Z,0.70
2022-12-09T03:31:17.137Z,0.70
2022-12-09T03:31:54.641Z,0.70
2022-12-09T03:32:31.193Z,0.60
2022-12-09T03:33:06.094Z,0.60
2022-12-09T03:33:44.607Z,0.60
2022-12-09T03:34:25.833Z,0.60
2022-12-09T03:35:05.798Z,0.60
2022-12-09T03:35:44.704Z,0.60
2022-12-09T03:36:21.335Z,0.60
2022-12-09T03:36:55.873Z,0.60
2022-12-09T03:37:35.192Z,0.70
2022-12-09T03:38:16.082Z,0.70
2022-12-09T03:38:52.973Z,0.70
2022-12-09T03:39:32.240Z,0.60
2022-12-09T03:40:13.951Z,0.60
2022-12-09T03:40:52.575Z,0.60
2022-12-09T03:41:31.486Z,0.60
2022-12-09T03:42:11.036Z,0.60
2022-12-09T03:42:50.814Z,0.60
2022-12-09T03:43:28.251Z,0.70
2022-12-09T03:44:09.179Z,0.60
2022-12-09T03:44:51.677Z,0.70
2022-12-09T03:45:26.761Z,0.60
2022-12-09T03:46:00.933Z,0.60
2022-12-09T03:46:37.232Z,0.60
2022-12-09T03:47:12.330Z,0.60
2022-12-09T03:47:47.034Z,0.60
2022-12-09T03:48:24.254Z,0.70
2022-12-09T03:48:59.204Z,0.70
2022-12-09T03:49:33.398Z,0.70
2022-12-09T03:50:13.108Z,0.70
2022-12-09T03:50:52.137Z,0.70
2022-12-09T03:51:30.187Z,0.70
2022-12-09T03:52:13.716Z,0.70
2022-12-09T03:52:52.082Z,0.70
2022-12-09T03:53:34.231Z,0.70
2022-12-09T03:54:13.866Z,0.70
2022-12-09T03:54:51.887Z,0.70
2022-12-09T03:55:32.169Z,0.70
2022-12-09T03:56:10.344Z,0.70
2022-12-09T03:56:49.942Z,0.70
2022-12-09T03:57:26.786Z,0.70
2022-12-09T03:58:05.078Z,0.70
2022-12-09T03:58:43.443Z,0.70
2022-12-09T03:59:18.112Z,0.70
2022-12-09T03:59:55.451Z,0.70
2022-12-09T04:00:29.924Z,0.70
2022-12-09T04:01:04.091Z,0.70
2022-12-09T04:01:41.673Z,0.70
2022-12-09T04:02:17.546Z,0.70
2022-12-09T04:02:53.528Z,0.70
2022-12-09T04:03:30.010Z,0.70
2022-12-09T04:04:05.049Z,0.70
2022-12-09T04:04:42.637Z,0.70
2022-12-09T04:05:17.721Z,0.60
2022-12-09T04:05:53.653Z,0.60
2022-12-09T04:06:29.117Z,0.70
2022-12-09T04:07:03.876Z,0.60
2022-12-09T04:07:40.255Z,0.60
2022-12-09T04:08:14.612Z,0.70
2022-12-09T04:08:49.444Z,0.60
2022-12-09T04:09:24.179Z,0.60
2022-12-09T04:09:58.946Z,0.70
2022-12-09T04:10:33.358Z,0.70
2022-12-09T04:11:10.050Z,0.70
2022-12-09T04:11:45.246Z,0.70
2022-12-09T04:12:19.043Z,0.70
2022-12-09T04:12:54.442Z,0.70
2022-12-09T04:13:29.955Z,0.60
2022-12-09T04:14:08.123Z,0.60
2022-12-09T04:14:48.418Z,0.60
2022-12-09T04:15:23.665Z,0.60
2022-12-09T04:15:58.085Z,0.50
2022-12-09T04:16:33.360Z,0.50
2022-12-09T04:17:08.383Z,0.50
2022-12-09T04:17:43.149Z,0.50
2022-12-09T04:18:19.465Z,0.40
2022-12-09T04:18:54.744Z,0.40
2022-12-09T04:19:28.916Z,0.40
2022-12-09T04:20:03.918Z,0.40
2022-12-09T04:20:39.717Z,0.40
2022-12-09T04:21:16.159Z,0.40
2022-12-09T04:21:51.582Z,0.40
2022-12-09T04:22:25.719Z,0.40
2022-12-09T04:23:01.264Z,0.40
2022-12-09T04:23:42.506Z,0.40
2022-12-09T04:24:17.383Z,0.40
2022-12-09T04:24:51.886Z,0.40
2022-12-09T04:25:27.687Z,0.40
2022-12-09T04:26:01.503Z,0.40
2022-12-09T04:26:36.841Z,0.40
2022-12-09T04:27:11.848Z,0.40
2022-12-09T04:27:46.239Z,0.30
2022-12-09T04:28:22.801Z,0.30
2022-12-09T04:28:57.994Z,0.30
2022-12-09T04:29:32.650Z,0.30
2022-12-09T04:30:09.597Z,0.30
2022-12-09T04:30:46.385Z,0.30
2022-12-09T04:31:22.332Z,0.30
2022-12-09T04:31:57.164Z,0.30
2022-12-09T04:32:32.241Z,0.30
2022-12-09T04:33:07.549Z,0.30
2022-12-09T04:33:42.877Z,0.30
2022-12-09T04:34:18.051Z,0.30
2022-12-09T04:34:53.127Z,0.30
2022-12-09T04:35:28.739Z,0.30
2022-12-09T04:36:06.312Z,0.30
2022-12-09T04:36:42.861Z,0.30
2022-12-09T04:37:17.991Z,0.30
2022-12-09T04:37:51.711Z,0.30
2022-12-09T04:38:27.637Z,0.20
2022-12-09T04:39:02.344Z,0.20
2022-12-09T04:39:39.555Z,0.30
2022-12-09T04:40:22.787Z,0.20
2022-12-09T04:41:00.221Z,0.20
2022-12-09T04:41:37.519Z,0.20
2022-12-09T04:42:12.916Z,0.20
2022-12-09T04:42:48.102Z,0.20
2022-12-09T04:43:23.496Z,0.20
2022-12-09T04:44:00.032Z,0.20
2022-12-09T04:44:34.335Z,0.20
2022-12-09T04:45:12.670Z,0.20
2022-12-09T04:45:47.600Z,0.20
2022-12-09T04:46:23.943Z,0.20
2022-12-09T04:47:01.229Z,0.20
2022-12-09T04:47:36.056Z,0.20
2022-12-09T04:48:10.787Z,0.30
2022-12-09T04:48:47.041Z,0.30
2022-12-09T04:49:22.215Z,0.30
2022-12-09T04:49:57.796Z,0.30
2022-12-09T04:50:33.234Z,0.30
2022-12-09T04:51:10.505Z,0.30
2022-12-09T04:51:47.167Z,0.30
2022-12-09T04:52:23.469Z,0.30
2022-12-09T04:52:57.307Z,0.30
2022-12-09T04:53:31.679Z,0.30
2022-12-09T04:54:07.772Z,0.30
2022-12-09T04:54:42.989Z,0.30
2022-12-09T04:55:18.815Z,0.30
2022-12-09T04:56:01.403Z,0.30
2022-12-09T04:56:37.270Z,0.30
2022-12-09T04:57:14.035Z,0.30
2022-12-09T04:57:48.074Z,0.30
2022-12-09T04:58:23.014Z,0.20
2022-12-09T04:58:59.331Z,0.20
2022-12-09T04:59:33.680Z,0.20
2022-12-09T05:00:11.197Z,0.10
2022-12-09T05:00:46.549Z,0.20
2022-12-09T05:01:28.466Z,0.20
2022-12-09T05:02:06.452Z,0.20
2022-12-09T05:02:41.002Z,0.30
2022-12-09T05:03:16.309Z,0.20
2022-12-09T05:03:52.438Z,0.30
2022-12-09T05:04:28.220Z,0.30
2022-12-09T05:05:04.843Z,0.30
2022-12-09T05:05:41.767Z,0.30
2022-12-09T05:06:17.034Z,0.30
2022-12-09T05:06:55.703Z,0.30
2022-12-09T05:07:31.481Z,0.30
2022-12-09T05:08:08.084Z,0.30
2022-12-09T05:08:44.789Z,0.30
2022-12-09T05:09:21.047Z,0.30
2022-12-09T05:09:59.007Z,0.30
2022-12-09T05:10:33.916Z,0.40
2022-12-09T05:11:08.737Z,0.30
2022-12-09T05:11:44.834Z,0.40
2022-12-09T05:12:19.451Z,0.40
2022-12-09T05:12:53.921Z,0.40
2022-12-09T05:13:29.325Z,0.40
2022-12-09T05:14:04.355Z,0.40
2022-12-09T05:14:40.002Z,0.50
2022-12-09T05:15:15.016Z,0.50
2022-12-09T05:15:51.976Z,0.50
2022-12-09T05:16:30.412Z,0.50
2022-12-09T05:17:08.129Z,0.50
2022-12-09T05:17:46.186Z,0.40
2022-12-09T05:18:23.848Z,0.50
2022-12-09T05:19:01.616Z,0.50
2022-12-09T05:19:35.674Z,0.50
2022-12-09T05:20:13.153Z,0.50
2022-12-09T05:20:52.407Z,0.50
2022-12-09T05:21:26.965Z,0.50
2022-12-09T05:22:02.356Z,0.50
2022-12-09T05:22:37.535Z,0.50
2022-12-09T05:23:12.682Z,0.50
2022-12-09T05:23:48.874Z,0.60
2022-12-09T05:24:25.575Z,0.50
2022-12-09T05:25:01.124Z,0.50
2022-12-09T05:25:36.141Z,0.50
2022-12-09T05:26:14.691Z,0.50
2022-12-09T05:26:50.147Z,0.50
2022-12-09T05:27:27.615Z,0.50
2022-12-09T05:28:01.636Z,0.50
2022-12-09T05:28:38.334Z,0.50
2022-12-09T05:29:16.675Z,0.50
2022-12-09T05:29:55.384Z,0.50
2022-12-09T05:30:30.065Z,0.40
2022-12-09T05:31:08.629Z,0.40
2022-12-09T05:31:43.357Z,0.40
2022-12-09T05:32:19.944Z,0.40
2022-12-09T05:32:54.629Z,0.50
2022-12-09T05:33:30.684Z,0.40
2022-12-09T05:34:08.472Z,0.50
2022-12-09T05:34:43.736Z,0.50
2022-12-09T05:35:18.758Z,0.50
2022-12-09T05:35:55.236Z,0.50
2022-12-09T05:36:31.111Z,0.50
2022-12-09T05:37:08.965Z,0.50
2022-12-09T05:37:43.166Z,0.50
2022-12-09T05:38:20.155Z,0.50
2022-12-09T05:38:55.898Z,0.50
2022-12-09T05:39:32.755Z,0.50
2022-12-09T05:40:08.768Z,0.50
2022-12-09T05:40:43.347Z,0.50
2022-12-09T05:41:18.420Z,0.60
2022-12-09T05:41:53.471Z,0.60
2022-12-09T05:42:28.376Z,0.50
2022-12-09T05:43:03.949Z,0.50
2022-12-09T05:43:41.238Z,0.50
2022-12-09T05:44:17.692Z,0.50
2022-12-09T05:44:53.170Z,0.50
2022-12-09T05:45:28.540Z,0.50
2022-12-09T05:46:04.453Z,0.50
2022-12-09T05:46:39.671Z,0.50
2022-12-09T05:47:15.629Z,0.50
2022-12-09T05:47:49.866Z,0.50
2022-12-09T05:48:24.261Z,0.60
2022-12-09T05:48:58.700Z,0.60
2022-12-09T05:49:34.924Z,0.60
2022-12-09T05:50:12.613Z,0.60
2022-12-09T05:50:58.196Z,0.60
2022-12-09T05:51:35.166Z,0.50
2022-12-09T05:52:16.804Z,0.50
2022-12-09T05:52:52.889Z,0.50
2022-12-09T05:53:28.437Z,0.50
2022-12-09T05:54:04.726Z,0.50
2022-12-09T05:54:41.658Z,0.50
2022-12-09T05:55:16.260Z,0.50
2022-12-09T05:55:50.740Z,0.50
2022-12-09T05:56:27.525Z,0.50
2022-12-09T05:57:04.717Z,0.60
2022-12-09T05:57:40.350Z,0.60
2022-12-09T05:58:15.499Z,0.60
2022-12-09T05:58:49.802Z,0.60
2022-12-09T05:59:26.599Z,0.60
2022-12-09T06:00:01.321Z,0.60
2022-12-09T06:00:45.918Z,0.60
2022-12-09T06:01:22.148Z,0.60
2022-12-09T06:01:57.977Z,0.60
2022-12-09T06:02:33.165Z,0.60
2022-12-09T06:03:08.025Z,0.60
2022-12-09T06:03:44.937Z,0.60
2022-12-09T06:04:20.353Z,0.60
2022-12-09T06:04:56.314Z,0.70
2022-12-09T06:05:33.420Z,0.70
2022-12-09T06:06:08.909Z,0.70
2022-12-09T06:06:44.215Z,0.70
2022-12-09T06:07:20.596Z,0.70
2022-12-09T06:07:54.825Z,0.60
2022-12-09T06:08:29.201Z,0.70
2022-12-09T06:09:05.244Z,0.60
2022-12-09T06:09:41.017Z,0.60
2022-12-09T06:10:16.224Z,0.60
2022-12-09T06:10:52.314Z,0.70
2022-12-09T06:11:27.852Z,0.70
2022-12-09T06:12:06.000Z,0.70
2022-12-09T06:12:39.347Z,0.70
2022-12-09T06:13:13.515Z,0.70
2022-12-09T06:13:49.047Z,0.70
2022-12-09T06:14:23.627Z,0.70
2022-12-09T06:14:57.257Z,0.70
2022-12-09T06:15:33.704Z,0.80
2022-12-09T06:16:11.400Z,0.80
2022-12-09T06:16:46.097Z,0.80
2022-12-09T06:17:21.695Z,0.80
2022-12-09T06:17:58.110Z,0.80
2022-12-09T06:18:32.900Z,0.80
2022-12-09T06:19:09.458Z,0.80
2022-12-09T06:19:43.853Z,0.70
2022-12-09T06:20:20.114Z,0.80
2022-12-09T06:20:56.190Z,0.70
2022-12-09T06:21:29.880Z,0.80
2022-12-09T06:22:08.937Z,0.80
2022-12-09T06:22:46.360Z,0.80
2022-12-09T06:23:21.371Z,0.80
2022-12-09T06:23:56.805Z,0.80
2022-12-09T06:24:33.023Z,0.80
2022-12-09T06:25:07.830Z,0.80
2022-12-09T06:25:46.481Z,0.80
2022-12-09T06:26:23.171Z,0.80
2022-12-09T06:26:59.604Z,0.80
2022-12-09T06:27:33.429Z,0.80
2022-12-09T06:28:08.739Z,0.90
2022-12-09T06:28:43.444Z,0.90
2022-12-09T06:29:19.054Z,0.90
2022-12-09T06:29:55.947Z,0.90
2022-12-09T06:30:30.182Z,0.90
2022-12-09T06:31:05.079Z,0.90
2022-12-09T06:31:40.310Z,1.00
2022-12-09T06:32:15.146Z,1.00
2022-12-09T06:32:49.884Z,1.00
2022-12-09T06:33:53.090Z,0.90
2022-12-09T06:34:19.470Z,1.00
2022-12-09T06:34:56.669Z,1.00
2022-12-09T06:35:31.593Z,1.00
2022-12-09T06:36:07.243Z,1.00
2022-12-09T06:36:42.889Z,1.00
2022-12-09T06:37:18.356Z,1.00
2022-12-09T06:37:53.695Z,1.00
2022-12-09T06:38:28.893Z,1.00
2022-12-09T06:39:09.892Z,1.00
2022-12-09T06:39:47.868Z,1.10
2022-12-09T06:40:23.471Z,1.10
2022-12-09T06:40:58.257Z,1.00
2022-12-09T06:41:33.513Z,1.00
2022-12-09T06:42:08.978Z,1.00
2022-12-09T06:42:45.153Z,0.90
2022-12-09T06:43:19.509Z,0.90
2022-12-09T06:43:53.288Z,0.90
2022-12-09T06:44:28.557Z,0.80
2022-12-09T06:45:02.530Z,0.80
2022-12-09T06:45:37.737Z,0.80
2022-12-09T06:46:17.206Z,0.70
2022-12-09T06:46:52.235Z,0.70
2022-12-09T06:47:29.037Z,0.70
2022-12-09T06:48:03.573Z,0.70
2022-12-09T06:48:40.916Z,0.70
2022-12-09T06:49:15.084Z,0.70
2022-12-09T06:49:50.206Z,0.70
2022-12-09T06:50:25.238Z,0.70
2022-12-09T06:51:00.487Z,0.70
2022-12-09T06:51:35.770Z,0.80
2022-12-09T06:52:11.747Z,0.80
2022-12-09T06:52:47.227Z,0.80
2022-12-09T06:53:22.893Z,0.80
2022-12-09T06:53:58.070Z,0.80
2022-12-09T06:54:32.823Z,0.80
2022-12-09T06:55:11.530Z,0.80
2022-12-09T06:55:46.174Z,0.70
2022-12-09T06:56:21.801Z,0.70
2022-12-09T06:56:57.707Z,0.70
2022-12-09T06:57:33.466Z,0.70
2022-12-09T06:58:08.903Z,0.70
2022-12-09T06:58:44.676Z,0.70
2022-12-09T06:59:21.233Z,0.70
2022-12-09T06:59:55.623Z,0.70
2022-12-09T07:00:30.099Z,0.70
2022-12-09T07:01:09.628Z,0.70
2022-12-09T07:01:43.993Z,0.70
2022-12-09T07:02:19.858Z,0.70
2022-12-09T07:02:54.573Z,0.70
2022-12-09T07:03:30.816Z,0.70
2022-12-09T07:04:08.302Z,0.70
2022-12-09T07:04:44.473Z,0.70
2022-12-09T07:05:20.060Z,0.60
2022-12-09T07:05:55.626Z,0.60
2022-12-09T07:06:32.832Z,0.60
2022-12-09T07:07:07.495Z,0.60
2022-12-09T07:07:43.419Z,0.70
2022-12-09T07:08:19.123Z,0.70
2022-12-09T07:08:57.375Z,0.60
2022-12-09T07:09:33.302Z,0.60
2022-12-09T07:10:11.444Z,0.50
2022-12-09T07:10:56.238Z,0.50
2022-12-09T07:11:31.970Z,0.50
2022-12-09T07:12:09.830Z,0.50
2022-12-09T07:12:44.671Z,0.50
2022-12-09T07:13:18.946Z,0.50
2022-12-09T07:13:54.125Z,0.50
2022-12-09T07:14:28.887Z,0.50
2022-12-09T07:15:05.695Z,0.50
2022-12-09T07:15:40.925Z,0.50
2022-12-09T07:16:16.359Z,0.50
2022-12-09T07:16:52.149Z,0.50
2022-12-09T07:17:27.119Z,0.50
2022-12-09T07:18:03.865Z,0.50
2022-12-09T07:18:38.877Z,0.50
2022-12-09T07:19:18.349Z,0.50
2022-12-09T07:19:53.528Z,0.50
2022-12-09T07:20:29.079Z,0.40
2022-12-09T07:21:08.701Z,0.40
2022-12-09T07:21:44.345Z,0.40
2022-12-09T07:22:18.535Z,0.40
2022-12-09T07:22:55.053Z,0.40
2022-12-09T07:23:29.568Z,0.40
2022-12-09T07:24:07.801Z,0.50
2022-12-09T07:24:41.947Z,0.40
2022-12-09T07:25:18.672Z,0.50
2022-12-09T07:25:57.999Z,0.50
2022-12-09T07:26:34.527Z,0.50
2022-12-09T07:27:14.315Z,0.50
2022-12-09T07:27:52.852Z,0.50
2022-12-09T07:28:28.145Z,0.50
2022-12-09T07:29:03.291Z,0.50
2022-12-09T07:29:39.595Z,0.50
2022-12-09T07:30:16.425Z,0.50
2022-12-09T07:30:53.204Z,0.50
2022-12-09T07:31:29.650Z,0.50
2022-12-09T07:32:06.455Z,0.50
2022-12-09T07:32:40.722Z,0.50
2022-12-09T07:33:15.985Z,0.60
2022-12-09T07:33:51.224Z,0.60
2022-12-09T07:34:28.198Z,0.50
2022-12-09T07:35:03.013Z,0.50
2022-12-09T07:35:40.111Z,0.50
2022-12-09T07:36:19.198Z,0.50
2022-12-09T07:36:56.716Z,0.50
2022-12-09T07:37:31.741Z,0.50
2022-12-09T07:38:06.861Z,0.50
2022-12-09T07:38:42.707Z,0.50
2022-12-09T07:39:20.648Z,0.50
2022-12-09T07:39:56.486Z,0.50
2022-12-09T07:40:31.584Z,0.50
2022-12-09T07:41:07.616Z,0.50
2022-12-09T07:41:42.865Z,0.50
2022-12-09T07:42:17.999Z,0.60
2022-12-09T07:43:00.038Z,0.50
2022-12-09T07:43:34.318Z,0.60
2022-12-09T07:44:11.256Z,0.60
2022-12-09T07:44:45.528Z,0.60
2022-12-09T07:45:21.528Z,0.70
2022-12-09T07:45:56.681Z,0.70
2022-12-09T07:46:33.129Z,0.70
2022-12-09T07:47:07.048Z,0.70
2022-12-09T07:47:43.100Z,0.70
2022-12-09T07:48:18.631Z,0.70
2022-12-09T07:48:54.400Z,0.70
2022-12-09T07:49:29.908Z,0.70
2022-12-09T07:50:07.056Z,0.80
2022-12-09T07:50:43.433Z,0.80
2022-12-09T07:51:17.795Z,0.80
2022-12-09T07:51:53.610Z,0.80
2022-12-09T07:52:28.881Z,0.80
2022-12-09T07:53:05.031Z,0.90
2022-12-09T07:53:39.890Z,0.80
2022-12-09T07:54:14.700Z,0.80
2022-12-09T07:54:50.543Z,0.80
2022-12-09T07:55:24.908Z,0.80
2022-12-09T07:56:05.317Z,0.80
2022-12-09T07:56:38.529Z,0.70
2022-12-09T07:57:14.327Z,0.70
2022-12-09T07:57:49.869Z,0.60
2022-12-09T07:58:23.968Z,0.60
2022-12-09T07:58:59.490Z,0.60
2022-12-09T07:59:36.716Z,0.60
2022-12-09T08:00:12.869Z,0.70
2022-12-09T08:00:49.126Z,0.70
2022-12-09T08:01:25.497Z,0.70
2022-12-09T08:02:06.608Z,0.70
2022-12-09T08:02:42.365Z,0.70
2022-12-09T08:03:17.012Z,0.70
2022-12-09T08:03:54.435Z,0.70
2022-12-09T08:04:29.372Z,0.70
2022-12-09T08:05:06.849Z,0.70
2022-12-09T08:05:47.220Z,0.70
2022-12-09T08:06:25.988Z,0.70
2022-12-09T08:07:01.762Z,0.70
2022-12-09T08:07:42.215Z,0.70
2022-12-09T08:08:18.960Z,0.70
2022-12-09T08:08:55.791Z,0.70
2022-12-09T08:09:31.490Z,0.60
2022-12-09T08:10:10.278Z,0.60
2022-12-09T08:10:45.419Z,0.60
2022-12-09T08:11:23.480Z,0.70
2022-12-09T08:12:00.227Z,0.60
2022-12-09T08:12:35.575Z,0.60
2022-12-09T08:13:09.714Z,0.60
2022-12-09T08:13:46.316Z,0.60
2022-12-09T08:14:20.427Z,0.60
2022-12-09T08:14:55.350Z,0.60
2022-12-09T08:15:30.380Z,0.60
2022-12-09T08:16:07.219Z,0.60
2022-12-09T08:16:43.596Z,0.60
2022-12-09T08:17:20.571Z,0.60
2022-12-09T08:17:55.222Z,0.60
2022-12-09T08:18:30.454Z,0.60
2022-12-09T08:19:07.156Z,0.60
2022-12-09T08:19:42.791Z,0.50
2022-12-09T08:20:21.435Z,0.50
2022-12-09T08:21:00.945Z,0.50
2022-12-09T08:21:35.960Z,0.50
2022-12-09T08:22:11.742Z,0.50
2022-12-09T08:22:46.766Z,0.50
2022-12-09T08:23:23.518Z,0.50
2022-12-09T08:23:59.935Z,0.60
2022-12-09T08:24:35.412Z,0.60
2022-12-09T08:25:12.446Z,0.60
2022-12-09T08:25:48.086Z,0.60
2022-12-09T08:26:24.991Z,0.60
2022-12-09T08:27:00.422Z,0.60
2022-12-09T08:27:35.891Z,0.60
2022-12-09T08:28:11.686Z,0.50
2022-12-09T08:28:46.211Z,0.50
2022-12-09T08:29:21.658Z,0.50
2022-12-09T08:29:57.767Z,0.50
2022-12-09T08:30:32.754Z,0.50
2022-12-09T08:31:09.307Z,0.50
2022-12-09T08:31:45.425Z,0.50
2022-12-09T08:32:20.218Z,0.50
2022-12-09T08:32:58.043Z,0.60
2022-12-09T08:33:35.434Z,0.60
2022-12-09T08:34:12.149Z,0.60
2022-12-09T08:34:47.601Z,0.60
2022-12-09T08:35:24.370Z,0.60
2022-12-09T08:36:00.535Z,0.60
2022-12-09T08:36:37.781Z,0.60
2022-12-09T08:37:12.742Z,0.70
2022-12-09T08:37:47.884Z,0.70
2022-12-09T08:38:23.439Z,0.70
2022-12-09T08:39:00.705Z,0.70
2022-12-09T08:39:36.795Z,0.70
2022-12-09T08:40:15.646Z,0.70
2022-12-09T08:40:50.611Z,0.70
2022-12-09T08:41:36.205Z,0.70
2022-12-09T08:42:12.959Z,0.70
2022-12-09T08:42:48.438Z,0.70
2022-12-09T08:43:27.112Z,0.70
2022-12-09T08:44:02.892Z,0.70
2022-12-09T08:44:40.822Z,0.70
2022-12-09T08:45:18.217Z,0.70
2022-12-09T08:45:53.975Z,0.70
2022-12-09T08:46:29.475Z,0.70
2022-12-09T08:47:06.617Z,0.70
2022-12-09T08:47:45.204Z,0.70
2022-12-09T08:48:20.586Z,0.60
2022-12-09T08:48:56.491Z,0.60
2022-12-09T08:49:31.432Z,0.60
2022-12-09T08:50:11.335Z,0.50
2022-12-09T08:50:46.201Z,0.50
2022-12-09T08:51:21.604Z,0.50
2022-12-09T08:51:57.531Z,0.50
2022-12-09T08:52:37.226Z,0.50
2022-12-09T08:53:14.641Z,0.40
2022-12-09T08:53:49.999Z,0.40
2022-12-09T08:54:24.938Z,0.40
2022-12-09T08:55:01.414Z,0.40
2022-12-09T08:55:40.819Z,0.40
2022-12-09T08:56:18.278Z,0.40
2022-12-09T08:56:55.606Z,0.40
2022-12-09T08:57:31.968Z,0.40
2022-12-09T08:58:06.438Z,0.40
2022-12-09T08:58:42.388Z,0.40
2022-12-09T08:59:17.745Z,0.50
2022-12-09T08:59:53.943Z,0.50
2022-12-09T09:00:29.083Z,0.50
2022-12-09T09:01:05.048Z,0.50
2022-12-09T09:01:40.661Z,0.50
2022-12-09T09:02:17.401Z,0.50
2022-12-09T09:02:53.023Z,0.50
2022-12-09T09:03:30.424Z,0.50
2022-12-09T09:04:09.800Z,0.50
2022-12-09T09:04:46.154Z,0.50
2022-12-09T09:05:23.247Z,0.50
2022-12-09T09:06:09.580Z,0.50
2022-12-09T09:06:50.555Z,0.50
2022-12-09T09:07:27.446Z,0.50
2022-12-09T09:08:01.770Z,0.50
2022-12-09T09:08:39.734Z,0.60
2022-12-09T09:09:15.266Z,0.50
2022-12-09T09:09:51.357Z,0.50
2022-12-09T09:10:31.454Z,0.50
2022-12-09T09:11:13.365Z,0.50
2022-12-09T09:11:48.090Z,0.50
2022-12-09T09:12:24.070Z,0.50